Pleasantville, Iowa
Current Conditions -  °F | °C
As of 2:15 AM on Tuesday 27 Jan 2015 (Local Time) from KOXV Reporting Station
Clear Clear  
Wind Chill: 28°   Ceiling: Unl
Heat Index: 36°   Visibility: 10mi
Dew Point: 30°   Wind: 10mph
Humidity: 81%   Direction: 330°NNW
Pressure: 30.01"   Gusts: 21mph
Location:  41.39°N, 93.27°W
Report Text: KOXV 270815Z AUTO 33009G18KT 10SM CLR 02/M01 A3001 RMK AO2
Loading
Personal Weather Stations






























Interactive Weather Map New forecast layout! Learn more

10-Day Weather Forecast

Advertisements
Track Severe Weather on mobile